Time;durP1;ratioP1;P1;durP2;ratioP2;P2;SDS_P1;SDS_P2;PMS_P1;PMS_P2;Temp;Humidity;BMP_temperature;BMP_pressure;BME280_temperature;BME280_humidity;BME280_pressure;Samples;Min_cycle;Max_cycle;Signal;HPM_P1;HPM_P2
2023/08/12 00:02:10;;;;;;;4.97;4.47;;;;;;;16.02;77.60;101441.94;5038387;28;20199;-71
2023/08/12 00:04:37;;;;;;;6.27;4.60;;;;;;;16.03;77.10;101446.16;5037707;28;20209;-72
2023/08/12 00:07:03;;;;;;;6.90;4.20;;;;;;;16.04;76.75;101445.03;5038075;28;20583;-71
2023/08/12 00:09:30;;;;;;;4.80;4.30;;;;;;;16.04;76.86;101439.72;5036744;28;20581;-71
2023/08/12 00:11:57;;;;;;;5.00;4.50;;;;;;;16.06;76.65;101436.72;5034435;28;20233;-71
2023/08/12 00:14:24;;;;;;;4.73;4.10;;;;;;;16.08;76.95;101439.81;5037740;28;20206;-71
2023/08/12 00:16:50;;;;;;;4.87;4.27;;;;;;;16.07;77.05;101432.94;5036043;28;20234;-71
2023/08/12 00:19:16;;;;;;;4.37;3.90;;;;;;;16.08;77.20;101437.91;5038644;28;20580;-71
2023/08/12 00:21:43;;;;;;;4.93;4.33;;;;;;;16.08;76.82;101437.13;5036282;28;20206;-71
2023/08/12 00:24:09;;;;;;;5.37;4.20;;;;;;;16.07;77.07;101438.25;5033422;28;20210;-71
2023/08/12 00:26:35;;;;;;;6.67;4.10;;;;;;;16.06;77.57;101442.03;5037408;28;20210;-71
2023/08/12 00:29:04;;;;;;;5.50;4.70;;;;;;;16.04;77.22;101438.97;5033552;28;20649;-71
2023/08/12 00:31:30;;;;;;;5.80;4.83;;;;;;;16.03;77.33;101437.38;5019300;28;20231;-71
2023/08/12 00:33:56;;;;;;;6.40;5.10;;;;;;;16.01;77.75;101435.09;5017527;28;20603;-71
2023/08/12 00:36:23;;;;;;;6.27;4.80;;;;;;;15.99;77.64;101439.97;5037069;28;20214;-71
2023/08/12 00:38:49;;;;;;;5.50;4.60;;;;;;;15.98;77.95;101449.06;5036567;28;20219;-72
2023/08/12 00:41:15;;;;;;;6.23;4.87;;;;;;;15.97;77.96;101436.09;5036817;28;20712;-71
2023/08/12 00:43:42;;;;;;;6.90;5.23;;;;;;;15.95;77.89;101430.34;5019738;28;20211;-71
2023/08/12 00:46:09;;;;;;;6.37;4.80;;;;;;;15.93;77.85;101432.56;5034912;28;20210;-71
2023/08/12 00:48:36;;;;;;;7.33;5.10;;;;;;;15.91;78.29;101427.59;5036713;28;20198;-71
2023/08/12 00:51:03;;;;;;;5.03;4.63;;;;;;;15.90;78.11;101423.38;5034148;28;20230;-71
2023/08/12 00:53:29;;;;;;;8.23;5.13;;;;;;;15.88;77.99;101427.50;5036514;28;20621;-71
2023/08/12 00:55:56;;;;;;;8.87;5.37;;;;;;;15.85;77.90;101422.84;5019708;28;20515;-71
2023/08/12 00:58:22;;;;;;;4.90;4.50;;;;;;;15.83;78.13;101417.09;5034216;28;20225;-71
2023/08/12 01:00:50;;;;;;;8.17;5.10;;;;;;;15.81;78.33;101419.28;5014396;28;20235;-70
2023/08/12 01:03:20;;;;;;;5.37;4.67;;;;;;;15.79;78.07;101422.28;5015516;28;20215;-71
2023/08/12 01:05:47;;;;;;;9.07;4.40;;;;;;;15.78;78.42;101412.00;5015288;28;20238;-71
2023/08/12 01:08:13;;;;;;;5.23;4.27;;;;;;;15.75;78.50;101400.13;5034051;28;20211;-71
2023/08/12 01:10:47;;;;;;;6.87;4.80;;;;;;;15.73;78.57;101410.34;5015790;28;20230;-71
2023/08/12 01:13:24;;;;;;;4.93;4.20;;;;;;;15.72;78.29;101405.34;5033767;28;20230;-71
2023/08/12 01:15:54;;;;;;;5.57;4.37;;;;;;;15.68;78.40;101399.94;5035157;28;20303;-71
2023/08/12 01:18:24;;;;;;;7.83;4.63;;;;;;;15.67;78.50;101403.72;5020163;28;20586;-71
2023/08/12 01:20:51;;;;;;;7.50;4.90;;;;;;;15.66;79.04;101398.72;5016251;28;20237;-71
2023/08/12 01:23:20;;;;;;;5.30;4.80;;;;;;;15.64;78.70;101400.94;5035911;28;20206;-70
2023/08/12 01:25:47;;;;;;;8.40;5.10;;;;;;;15.61;78.94;101389.09;5018921;28;20211;-70
2023/08/12 01:28:14;;;;;;;6.37;5.10;;;;;;;15.60;78.81;101392.09;5034412;28;20206;-70
2023/08/12 01:30:47;;;;;;;8.43;5.10;;;;;;;15.57;78.96;101393.53;5018057;28;20224;-71
2023/08/12 01:33:22;;;;;;;7.53;4.87;;;;;;;15.54;79.34;101385.47;5035175;28;20323;-71
2023/08/12 01:35:54;;;;;;;5.70;4.40;;;;;;;15.53;79.27;101391.91;5034100;28;20285;-71
2023/08/12 01:38:26;;;;;;;5.73;5.13;;;;;;;15.50;79.21;101393.34;5011265;28;20216;-70
2023/08/12 01:40:53;;;;;;;5.80;4.93;;;;;;;15.48;79.51;101382.25;5017379;28;20235;-71
2023/08/12 01:43:20;;;;;;;6.87;4.97;;;;;;;15.46;79.45;101389.03;5033957;28;22632;-71
2023/08/12 01:45:46;;;;;;;5.13;4.40;;;;;;;15.44;79.46;101386.72;5019027;28;20207;-71
2023/08/12 01:48:13;;;;;;;5.80;4.83;;;;;;;15.43;79.27;101389.72;5020168;28;20218;-71
2023/08/12 01:50:39;;;;;;;7.80;4.87;;;;;;;15.41;79.33;101390.03;5035423;28;20236;-71
2023/08/12 01:53:06;;;;;;;4.83;4.10;;;;;;;15.40;79.60;101385.84;5032009;28;20285;-71
2023/08/12 01:55:33;;;;;;;5.50;5.00;;;;;;;15.39;79.67;101383.50;5035055;28;20535;-71
2023/08/12 01:58:00;;;;;;;4.93;4.47;;;;;;;15.37;79.67;101386.50;5033469;28;20207;-70
2023/08/12 02:00:26;;;;;;;5.30;4.60;;;;;;;15.36;79.98;101378.88;5020221;28;20244;-71
2023/08/12 02:02:53;;;;;;;6.63;4.83;;;;;;;15.35;79.57;101383.41;5036986;28;20541;-70
2023/08/12 02:05:19;;;;;;;5.10;4.60;;;;;;;15.34;79.46;101378.44;5022907;28;20204;-71
2023/08/12 02:07:45;;;;;;;5.83;4.43;;;;;;;15.33;79.61;101376.88;5040898;28;20200;-71
2023/08/12 02:10:14;;;;;;;5.80;4.70;;;;;;;15.31;79.45;101371.09;5018443;28;20234;-71
2023/08/12 02:12:42;;;;;;;5.33;4.50;;;;;;;15.31;79.77;101374.53;5033343;28;20211;-71
2023/08/12 02:15:09;;;;;;;6.73;4.90;;;;;;;15.32;79.80;101369.97;5015199;28;20224;-73
2023/08/12 02:17:35;;;;;;;5.07;4.57;;;;;;;15.31;79.83;101366.53;5038702;28;20666;-71
2023/08/12 02:20:02;;;;;;;4.67;4.27;;;;;;;15.30;79.54;101369.53;5016865;28;20235;-71
2023/08/12 02:22:30;;;;;;;5.83;4.70;;;;;;;15.30;79.96;101353.56;5039637;28;20284;-71
2023/08/12 02:24:56;;;;;;;4.40;4.00;;;;;;;15.28;79.74;101359.25;5021474;28;20214;-71
2023/08/12 02:27:23;;;;;;;5.60;5.00;;;;;;;15.29;80.03;101358.13;5038791;28;20270;-71
2023/08/12 02:29:50;;;;;;;6.33;5.30;;;;;;;15.29;79.55;101349.34;5022289;28;20228;-71
2023/08/12 02:32:16;;;;;;;5.47;4.97;;;;;;;15.29;79.27;101349.34;5020758;28;20729;-71
2023/08/12 02:34:43;;;;;;;4.93;4.47;;;;;;;15.27;79.53;101344.38;5023410;28;20201;-71
2023/08/12 02:37:12;;;;;;;5.47;4.90;;;;;;;15.28;79.49;101337.97;5040303;28;20220;-71
2023/08/12 02:39:38;;;;;;;5.20;4.70;;;;;;;15.30;79.47;101337.59;5034371;28;20225;-71
2023/08/12 02:42:05;;;;;;;5.40;4.90;;;;;;;15.28;79.49;101340.63;5037142;28;20646;-70
2023/08/12 02:44:32;;;;;;;5.57;4.90;;;;;;;15.28;79.95;101347.81;5020608;28;20224;-71
2023/08/12 02:46:59;;;;;;;6.70;5.13;;;;;;;15.27;79.70;101341.72;5040143;28;20394;-71
2023/08/12 02:49:26;;;;;;;5.83;4.73;;;;;;;15.26;79.35;101334.09;5021693;28;20235;-71
2023/08/12 02:51:52;;;;;;;5.37;4.70;;;;;;;15.24;79.35;101331.75;5020345;28;20268;-71
2023/08/12 02:54:19;;;;;;;5.40;4.53;;;;;;;15.24;79.47;101325.66;5018702;28;20203;-71
2023/08/12 02:56:45;;;;;;;8.00;5.07;;;;;;;15.23;79.09;101327.56;5035751;28;20491;-71
2023/08/12 02:59:11;;;;;;;5.77;5.17;;;;;;;15.23;79.61;101335.53;5021922;28;20229;-71
2023/08/12 03:01:38;;;;;;;7.30;5.10;;;;;;;15.22;79.16;101328.66;5040113;28;20228;-71
2023/08/12 03:04:06;;;;;;;6.20;5.10;;;;;;;15.21;79.01;101327.09;5035913;28;20204;-71
2023/08/12 03:06:32;;;;;;;4.87;4.43;;;;;;;15.21;79.21;101331.66;5041167;28;20221;-71
2023/08/12 03:08:59;;;;;;;5.70;4.63;;;;;;;15.21;79.10;101318.34;5038080;28;20632;-71
2023/08/12 03:11:25;;;;;;;6.37;5.50;;;;;;;15.21;79.06;101326.34;5038208;28;20768;-71
2023/08/12 03:13:53;;;;;;;6.90;5.00;;;;;;;15.22;79.26;101327.88;5037286;28;20850;-71
2023/08/12 03:16:22;;;;;;;6.00;5.00;;;;;;;15.24;78.77;101328.31;5020823;28;20607;-71
2023/08/12 03:18:49;;;;;;;5.93;5.37;;;;;;;15.25;79.01;101330.63;5019256;28;20227;-71
2023/08/12 03:21:16;;;;;;;7.67;5.40;;;;;;;15.27;79.23;101325.00;5021503;28;20297;-71
2023/08/12 03:23:43;;;;;;;6.80;4.80;;;;;;;15.28;79.18;101329.19;5021392;28;20216;-71
2023/08/12 03:26:11;;;;;;;6.97;5.40;;;;;;;15.29;78.97;101330.72;5032462;28;20201;-71
2023/08/12 03:28:37;;;;;;;6.50;4.90;;;;;;;15.30;79.29;101324.28;5020257;28;20233;-71
2023/08/12 03:31:04;;;;;;;6.97;5.30;;;;;;;15.31;78.83;101331.94;5038658;28;20241;-71
2023/08/12 03:33:33;;;;;;;6.03;5.30;;;;;;;15.31;79.34;101329.28;5020891;28;20217;-71
2023/08/12 03:36:00;;;;;;;5.80;5.20;;;;;;;15.34;79.22;101333.19;5015670;28;20222;-71
2023/08/12 03:38:28;;;;;;;6.00;4.57;;;;;;;15.33;79.20;101327.09;5037910;28;20731;-71
2023/08/12 03:40:55;;;;;;;7.67;5.17;;;;;;;15.32;79.15;101316.75;5023072;28;20230;-71
2023/08/12 03:43:21;;;;;;;5.93;5.33;;;;;;;15.33;79.34;101321.00;5038046;28;20208;-71
2023/08/12 03:45:49;;;;;;;6.33;5.30;;;;;;;15.32;79.51;101316.75;5020648;28;20207;-71
2023/08/12 03:48:18;;;;;;;6.30;5.27;;;;;;;15.32;79.26;101308.78;5017730;28;20767;-71
2023/08/12 03:50:46;;;;;;;6.17;5.23;;;;;;;15.33;79.36;101310.34;5034503;28;20230;-71
2023/08/12 03:53:13;;;;;;;9.57;5.40;;;;;;;15.33;79.39;101307.69;5018342;28;20218;-71
2023/08/12 03:55:42;;;;;;;8.00;5.70;;;;;;;15.33;78.68;101311.13;5038843;28;20217;-71
2023/08/12 03:58:09;;;;;;;6.10;5.37;;;;;;;15.35;79.10;101310.78;5021109;28;20216;-70
2023/08/12 04:00:35;;;;;;;7.53;5.37;;;;;;;15.35;79.14;101306.25;5038936;28;20231;-71
2023/08/12 04:03:03;;;;;;;7.03;5.50;;;;;;;15.39;79.17;101312.44;5035107;28;20905;-71
2023/08/12 04:05:29;;;;;;;7.20;4.77;;;;;;;15.41;79.15;101307.53;5022789;28;20743;-71
2023/08/12 04:07:56;;;;;;;6.70;5.53;;;;;;;15.43;79.28;101315.19;5037636;28;20738;-71
2023/08/12 04:10:22;;;;;;;6.53;5.53;;;;;;;15.47;78.88;101308.84;5033906;28;20226;-71
2023/08/12 04:12:50;;;;;;;6.20;5.60;;;;;;;15.50;78.50;101307.38;5038402;28;20225;-71
2023/08/12 04:15:17;;;;;;;6.43;5.60;;;;;;;15.55;78.97;101301.81;5013244;28;20274;-71
2023/08/12 04:17:44;;;;;;;8.37;5.23;;;;;;;15.60;78.65;101299.69;5034463;28;21058;-71
2023/08/12 04:20:11;;;;;;;5.67;5.07;;;;;;;15.65;78.48;101296.78;5018728;28;20284;-71
2023/08/12 04:22:37;;;;;;;6.53;5.50;;;;;;;15.70;78.30;101298.41;5038432;28;20832;-71
2023/08/12 04:25:05;;;;;;;6.10;4.80;;;;;;;15.76;78.75;101303.16;5018837;28;20198;-71
2023/08/12 04:27:32;;;;;;;7.33;4.70;;;;;;;15.80;78.27;101290.69;5018076;28;20298;-71
2023/08/12 04:30:01;;;;;;;5.03;4.53;;;;;;;15.85;78.40;101297.66;5034481;28;20313;-71
2023/08/12 04:32:29;;;;;;;6.07;5.20;;;;;;;15.93;78.11;101291.41;5018344;28;20234;-71
2023/08/12 04:34:56;;;;;;;8.27;5.17;;;;;;;15.99;77.95;101287.34;5021671;28;20736;-71
2023/08/12 04:37:24;;;;;;;5.67;5.10;;;;;;;16.05;77.94;101300.06;5017411;28;20213;-71
2023/08/12 04:39:50;;;;;;;9.80;5.30;;;;;;;16.13;77.72;101287.69;5019486;28;20250;-71
2023/08/12 04:42:16;;;;;;;5.40;4.90;;;;;;;16.23;77.79;101287.16;5016034;28;20565;-71
2023/08/12 04:44:45;;;;;;;5.90;5.40;;;;;;;16.32;77.66;101277.88;5015929;28;20225;-71
2023/08/12 04:47:13;;;;;;;5.27;4.77;;;;;;;16.41;77.63;101289.13;5027626;28;20238;-71
2023/08/12 04:49:40;;;;;;;6.07;4.93;;;;;;;16.50;77.42;101281.72;5017282;28;20219;-71
2023/08/12 04:52:08;;;;;;;7.97;5.13;;;;;;;16.58;77.13;101291.44;5030628;28;20237;-71
2023/08/12 04:54:34;;;;;;;5.67;4.70;;;;;;;16.66;76.91;101287.78;5032748;28;20766;-72
2023/08/12 04:57:01;;;;;;;5.13;4.63;;;;;;;16.74;77.00;101286.84;5015550;28;20239;-72
2023/08/12 04:59:27;;;;;;;5.43;4.93;;;;;;;16.81;76.58;101286.97;5034661;28;20637;-72
2023/08/12 05:01:54;;;;;;;6.37;4.53;;;;;;;16.90;76.47;101289.44;4997049;28;20243;-72
2023/08/12 05:04:23;;;;;;;5.33;4.50;;;;;;;16.98;76.23;101286.56;4999487;28;20223;-71
2023/08/12 05:06:49;;;;;;;6.20;4.40;;;;;;;17.05;75.81;101286.72;5037407;28;20195;-72
2023/08/12 05:09:16;;;;;;;6.80;5.00;;;;;;;17.12;76.14;101281.50;5015590;28;20225;-71
2023/08/12 05:11:43;;;;;;;6.43;4.43;;;;;;;17.21;75.75;101281.28;5015317;28;20238;-72
2023/08/12 05:14:10;;;;;;;5.40;4.63;;;;;;;17.29;75.43;101285.66;5033951;28;20493;-72
2023/08/12 05:16:36;;;;;;;5.93;4.80;;;;;;;17.34;75.40;101285.38;5015698;28;20242;-72
2023/08/12 05:19:02;;;;;;;7.33;4.60;;;;;;;17.42;75.23;101282.50;5034677;28;20286;-72
2023/08/12 05:21:30;;;;;;;9.53;4.63;;;;;;;17.49;75.23;101279.94;5034189;28;20202;-72
2023/08/12 05:23:56;;;;;;;4.50;4.03;;;;;;;17.57;74.99;101286.19;5035855;28;20793;-72
2023/08/12 05:26:23;;;;;;;6.87;4.10;;;;;;;17.64;74.82;101278.31;5017303;28;20211;-72
2023/08/12 05:28:49;;;;;;;6.67;4.40;;;;;;;17.71;75.07;101271.19;5039096;28;20653;-72
2023/08/12 05:31:16;;;;;;;5.50;4.53;;;;;;;17.76;74.27;101280.81;5034729;28;20206;-72
2023/08/12 05:33:42;;;;;;;5.73;4.47;;;;;;;17.82;74.15;101280.16;5039805;28;20234;-72
2023/08/12 05:36:09;;;;;;;4.40;4.00;;;;;;;17.87;73.68;101279.06;5040089;28;20205;-72
2023/08/12 05:38:36;;;;;;;7.63;4.40;;;;;;;17.92;73.65;101279.56;5041249;28;20282;-72
2023/08/12 05:41:06;;;;;;;4.60;4.10;;;;;;;17.98;73.18;101280.03;5042226;28;20708;-72
2023/08/12 05:43:33;;;;;;;6.60;4.10;;;;;;;18.04;73.38;101276.69;5042672;28;20542;-72
2023/08/12 05:45:59;;;;;;;5.70;4.00;;;;;;;18.10;73.35;101283.28;5035790;28;20207;-72
2023/08/12 05:48:25;;;;;;;5.93;4.27;;;;;;;18.17;73.43;101282.63;5033781;28;20346;-72
2023/08/12 05:50:52;;;;;;;7.17;3.97;;;;;;;18.23;72.82;101283.84;5036260;28;20231;-72
2023/08/12 05:53:18;;;;;;;6.20;4.23;;;;;;;18.28;72.78;101278.19;5030328;28;20219;-71
2023/08/12 05:55:46;;;;;;;5.23;3.90;;;;;;;18.35;73.23;101283.69;5038150;28;20226;-71
2023/08/12 05:58:12;;;;;;;6.90;4.30;;;;;;;18.40;72.57;101265.44;5039708;28;20203;-71
2023/08/12 06:00:38;;;;;;;6.00;3.87;;;;;;;18.50;72.12;101269.38;5034255;28;20226;-71
2023/08/12 06:03:05;;;;;;;4.90;4.10;;;;;;;18.58;71.80;101263.75;5011366;28;20207;-70
2023/08/12 06:05:31;;;;;;;5.70;4.70;;;;;;;18.69;72.00;101269.25;5041204;28;20207;-71
2023/08/12 06:07:57;;;;;;;8.47;4.40;;;;;;;18.80;70.86;101260.25;5038226;28;20385;-71
2023/08/12 06:10:24;;;;;;;4.40;3.80;;;;;;;18.90;70.91;101264.16;5037309;28;20570;-71
2023/08/12 06:12:51;;;;;;;5.80;4.13;;;;;;;19.00;71.29;101266.19;5039011;28;20219;-71
2023/08/12 06:15:18;;;;;;;5.13;3.83;;;;;;;19.11;70.80;101267.09;5034274;28;20204;-71
2023/08/12 06:17:44;;;;;;;6.80;4.00;;;;;;;19.23;70.86;101269.53;5039111;28;20210;-71
2023/08/12 06:20:12;;;;;;;5.40;4.20;;;;;;;19.36;70.87;101271.59;5034569;28;20234;-71
2023/08/12 06:22:38;;;;;;;7.20;3.63;;;;;;;19.49;70.61;101270.22;5039449;28;20205;-71
2023/08/12 06:25:05;;;;;;;4.20;3.80;;;;;;;19.60;70.40;101262.25;5034800;28;20626;-71
2023/08/12 06:27:31;;;;;;;3.70;3.37;;;;;;;19.73;69.96;101263.53;5037874;28;20232;-71
2023/08/12 06:29:59;;;;;;;5.13;3.57;;;;;;;19.84;69.73;101249.09;5037656;28;20596;-71
2023/08/12 06:32:25;;;;;;;4.37;3.40;;;;;;;19.94;68.78;101247.63;5035730;28;20211;-71
2023/08/12 06:34:51;;;;;;;4.80;3.23;;;;;;;20.02;70.08;101254.59;5039080;28;20230;-72
2023/08/12 06:37:18;;;;;;;5.90;3.60;;;;;;;20.09;68.63;101255.44;5036628;28;20222;-71
2023/08/12 06:39:44;;;;;;;5.53;3.70;;;;;;;20.18;70.00;101250.50;5033354;28;20230;-71
2023/08/12 06:42:10;;;;;;;4.43;3.67;;;;;;;20.29;69.06;101245.22;5030509;28;20570;-72
2023/08/12 06:44:37;;;;;;;3.70;3.40;;;;;;;20.40;69.29;101243.34;5033372;28;20207;-72
2023/08/12 06:47:04;;;;;;;4.73;3.90;;;;;;;20.54;68.32;101241.50;5035789;28;20211;-72
2023/08/12 06:49:31;;;;;;;3.70;3.20;;;;;;;20.67;67.48;101237.38;5035913;28;20239;-73
2023/08/12 06:51:57;;;;;;;4.73;3.50;;;;;;;20.80;68.02;101233.19;5032962;28;20231;-72
2023/08/12 06:54:24;;;;;;;4.13;3.73;;;;;;;20.95;67.26;101237.50;5030906;28;20234;-70
2023/08/12 06:56:50;;;;;;;6.40;3.33;;;;;;;21.09;67.41;101234.84;5032496;28;20289;-72
2023/08/12 06:59:17;;;;;;;5.97;3.50;;;;;;;21.23;66.94;101244.88;5033614;28;20222;-72
2023/08/12 07:01:44;;;;;;;5.23;3.77;;;;;;;21.38;66.66;101233.75;5031193;28;20269;-71
2023/08/12 07:04:11;;;;;;;3.73;3.13;;;;;;;21.55;65.16;101240.31;5032528;28;20586;-71
2023/08/12 07:06:38;;;;;;;5.30;3.53;;;;;;;21.70;65.95;101239.97;5037723;28;20285;-72
2023/08/12 07:09:04;;;;;;;4.70;3.70;;;;;;;21.85;66.50;101238.81;5037747;28;20221;-72
2023/08/12 07:11:30;;;;;;;5.30;3.43;;;;;;;22.02;66.99;101238.03;5030595;28;20649;-72
2023/08/12 07:13:57;;;;;;;7.07;3.20;;;;;;;22.20;65.02;101243.38;5034092;28;20697;-71
2023/08/12 07:16:23;;;;;;;3.95;3.13;;;;;;;22.38;65.18;101244.09;5033391;28;20200;-72
2023/08/12 07:18:49;;;;;;;4.65;3.03;;;;;;;22.54;62.28;101244.47;5033173;28;20909;-72
2023/08/12 07:21:17;;;;;;;5.68;3.10;;;;;;;22.70;63.65;101239.41;5028183;28;20230;-72
2023/08/12 07:23:44;;;;;;;3.47;2.80;;;;;;;22.85;62.85;101235.47;5030369;28;20203;-72
2023/08/12 07:26:10;;;;;;;3.50;3.05;;;;;;;22.96;62.99;101242.34;5031630;28;20296;-72
2023/08/12 07:28:37;;;;;;;4.00;3.03;;;;;;;23.06;62.31;101240.75;5038644;28;20215;-72
2023/08/12 07:31:03;;;;;;;6.38;3.20;;;;;;;23.14;62.79;101239.56;5034446;28;20222;-72
2023/08/12 07:33:30;;;;;;;3.35;2.88;;;;;;;23.19;63.30;101241.88;5034397;28;20238;-72
2023/08/12 07:35:56;;;;;;;3.72;3.10;;;;;;;23.27;62.42;101246.06;5030918;28;20217;-72
2023/08/12 07:38:24;;;;;;;5.32;3.10;;;;;;;23.33;60.31;101243.72;5028627;28;20286;-72
2023/08/12 07:40:50;;;;;;;3.63;2.90;;;;;;;23.38;59.45;101246.78;5033094;28;20239;-71
2023/08/12 07:43:16;;;;;;;4.68;2.80;;;;;;;23.46;61.70;101237.47;5033914;28;20277;-72
2023/08/12 07:45:43;;;;;;;3.30;3.00;;;;;;;23.54;60.70;101242.41;5037486;28;20206;-71
2023/08/12 07:48:09;;;;;;;3.20;2.95;;;;;;;23.63;61.05;101234.63;5032316;28;20210;-71
2023/08/12 07:50:36;;;;;;;4.00;3.10;;;;;;;23.72;60.14;101247.66;5035091;28;20242;-72
2023/08/12 07:53:02;;;;;;;3.78;2.90;;;;;;;23.80;61.25;101249.91;5033304;28;20265;-72
2023/08/12 07:55:30;;;;;;;2.67;2.47;;;;;;;23.92;59.92;101248.69;5037672;28;20211;-71
2023/08/12 07:57:56;;;;;;;3.70;2.80;;;;;;;24.11;62.43;101241.94;5034807;28;20206;-72
2023/08/12 08:00:23;;;;;;;4.00;3.05;;;;;;;24.29;60.96;101251.41;5034853;28;20230;-72
2023/08/12 08:02:49;;;;;;;3.30;3.00;;;;;;;24.49;58.62;101244.25;5037165;28;20220;-72
2023/08/12 08:05:15;;;;;;;3.05;2.72;;;;;;;24.65;59.22;101241.75;5037539;28;20930;-72
2023/08/12 08:07:42;;;;;;;4.60;3.00;;;;;;;24.81;56.85;101241.94;5037403;28;20546;-72
2023/08/12 08:10:09;;;;;;;3.58;2.90;;;;;;;24.99;56.74;101241.72;5029428;28;20578;-72
2023/08/12 08:12:37;;;;;;;4.85;2.90;;;;;;;25.10;60.06;101245.81;5034099;28;20218;-72
2023/08/12 08:15:03;;;;;;;4.00;2.67;;;;;;;25.27;57.93;101238.66;5029179;28;20285;-71
2023/08/12 08:17:37;;;;;;;4.47;2.97;;;;;;;25.45;56.69;101233.75;5051694;27;21302;-71
2023/08/12 08:20:05;;;;;;;5.13;3.00;;;;;;;25.60;54.49;101241.22;5053627;28;20261;-71
2023/08/12 08:22:32;;;;;;;3.42;3.05;;;;;;;25.70;55.63;101229.44;5046166;28;20267;-72
2023/08/12 08:24:58;;;;;;;4.15;2.90;;;;;;;25.76;54.62;101232.47;5048395;28;20223;-71
2023/08/12 08:27:26;;;;;;;4.20;3.30;;;;;;;25.87;55.64;101222.22;5047750;28;20214;-71
2023/08/12 08:29:52;;;;;;;5.05;3.05;;;;;;;25.97;53.58;101226.72;5047249;28;20735;-71
2023/08/12 08:32:18;;;;;;;5.40;3.20;;;;;;;26.09;54.53;101229.56;5050466;28;20217;-71
2023/08/12 08:34:46;;;;;;;2.78;2.58;;;;;;;26.25;56.15;101223.47;5043578;28;20212;-71
2023/08/12 08:37:12;;;;;;;3.58;2.90;;;;;;;26.38;58.89;101225.16;5047189;28;20842;-72
2023/08/12 08:39:39;;;;;;;3.42;3.05;;;;;;;26.52;57.21;101224.13;5046078;28;20334;-71
2023/08/12 08:42:06;;;;;;;6.35;2.90;;;;;;;26.64;55.56;101223.50;5047876;28;20209;-72
2023/08/12 08:44:34;;;;;;;2.88;2.65;;;;;;;26.76;55.03;101226.34;5051664;28;20310;-71
2023/08/12 08:47:00;;;;;;;3.88;2.88;;;;;;;26.88;53.85;101222.97;5048826;28;20241;-71
2023/08/12 08:49:29;;;;;;;7.93;3.90;;;;;;;26.94;53.60;101229.41;5049936;28;20556;-72
2023/08/12 08:51:57;;;;;;;3.80;3.05;;;;;;;26.97;52.48;101228.59;5048650;28;20203;-72
2023/08/12 08:54:23;;;;;;;6.50;3.15;;;;;;;26.98;52.48;101219.25;5047716;28;20214;-72
2023/08/12 08:56:50;;;;;;;6.75;3.53;;;;;;;26.98;54.32;101216.56;5050418;28;20230;-71
2023/08/12 08:59:17;;;;;;;3.50;2.83;;;;;;;26.98;53.58;101215.81;5050656;28;20689;-71
2023/08/12 09:01:46;;;;;;;3.95;3.20;;;;;;;26.94;53.13;101218.56;5053828;28;20294;-71
2023/08/12 09:04:14;;;;;;;5.53;3.30;;;;;;;26.95;56.02;101214.69;5053337;28;20207;-71
2023/08/12 09:06:40;;;;;;;3.33;3.00;;;;;;;26.93;53.88;101219.03;5048376;28;20207;-71
2023/08/12 09:09:13;;;;;;;5.40;3.45;;;;;;;26.90;53.75;101228.75;5047524;28;20237;-71
2023/08/12 09:11:40;;;;;;;3.55;3.20;;;;;;;26.86;53.83;101219.16;5045067;28;24763;-71
2023/08/12 09:14:07;;;;;;;3.47;2.88;;;;;;;26.85;54.44;101226.53;5050677;28;21383;-71
2023/08/12 09:16:33;;;;;;;4.25;3.28;;;;;;;26.88;55.54;101222.97;5049052;28;20337;-71
2023/08/12 09:19:00;;;;;;;3.78;3.15;;;;;;;26.93;53.94;101230.59;5049306;28;20641;-71
2023/08/12 09:21:26;;;;;;;5.82;3.72;;;;;;;26.98;54.13;101230.09;5045331;28;20222;-71
2023/08/12 09:23:52;;;;;;;4.68;3.40;;;;;;;27.04;50.32;101223.00;5048980;28;20289;-72
2023/08/12 09:26:21;;;;;;;7.43;4.03;;;;;;;27.11;52.72;101225.56;5048776;28;20272;-71
2023/08/12 09:28:49;;;;;;;5.57;3.17;;;;;;;27.23;54.08;101222.22;5035187;28;20695;-71
2023/08/12 09:31:24;;;;;;;3.40;3.10;;;;;;;27.37;54.88;101215.69;5035343;28;20715;-72
2023/08/12 09:33:51;;;;;;;3.10;2.80;;;;;;;27.46;52.81;101210.44;5034833;28;20206;-71
2023/08/12 09:36:17;;;;;;;4.47;3.28;;;;;;;27.55;51.11;101216.03;5036570;28;20211;-72
2023/08/12 09:38:44;;;;;;;4.95;3.25;;;;;;;27.60;53.28;101215.53;5031739;28;20710;-72
2023/08/12 09:41:10;;;;;;;3.50;3.20;;;;;;;27.62;52.30;101210.44;5037883;28;20602;-72
2023/08/12 09:43:42;;;;;;;2.95;2.65;;;;;;;27.61;51.49;101215.06;5038155;28;20214;-72
2023/08/12 09:46:12;;;;;;;3.30;2.63;;;;;;;27.60;52.05;101210.84;5036492;28;20290;-72
2023/08/12 09:48:38;;;;;;;3.40;2.83;;;;;;;27.62;52.65;101210.44;5039362;28;20317;-72
2023/08/12 09:51:05;;;;;;;3.50;3.10;;;;;;;27.64;52.83;101213.47;5042095;28;20229;-72
2023/08/12 09:53:33;;;;;;;3.55;2.90;;;;;;;27.65;51.62;101202.19;5033199;28;20198;-71
2023/08/12 09:56:07;;;;;;;2.95;2.58;;;;;;;27.66;51.05;101201.00;5043379;28;20677;-71
2023/08/12 09:58:36;;;;;;;2.97;2.72;;;;;;;27.71;51.22;101202.44;5032417;28;20202;-71
2023/08/12 10:01:05;;;;;;;4.05;3.33;;;;;;;27.75;51.36;101194.97;5040688;28;20211;-72
2023/08/12 10:03:33;;;;;;;2.63;2.42;;;;;;;27.79;50.17;101193.72;5040100;28;20292;-72
2023/08/12 10:06:00;;;;;;;2.97;2.60;;;;;;;27.86;51.33;101190.81;5036589;28;20199;-72
2023/08/12 10:08:28;;;;;;;2.90;2.70;;;;;;;27.92;52.19;101191.06;5032966;28;20216;-72
2023/08/12 10:10:54;;;;;;;3.95;3.20;;;;;;;27.96;51.27;101189.78;5041088;28;20223;-72
2023/08/12 10:13:22;;;;;;;3.92;2.90;;;;;;;28.01;50.00;101189.25;5036979;28;20200;-72
2023/08/12 10:15:49;;;;;;;3.05;2.78;;;;;;;28.06;51.12;101186.00;5036889;28;20254;-72
2023/08/12 10:18:18;;;;;;;2.70;2.50;;;;;;;28.12;50.68;101189.72;5032716;28;20215;-71
2023/08/12 10:20:45;;;;;;;4.05;2.90;;;;;;;28.14;52.73;101187.34;5032420;28;20238;-71
2023/08/12 10:23:16;;;;;;;3.92;2.95;;;;;;;28.17;51.11;101188.44;5035609;28;20326;-71
2023/08/12 10:25:44;;;;;;;2.75;2.50;;;;;;;28.18;49.43;101182.56;5030647;28;20241;-71
2023/08/12 10:28:11;;;;;;;2.78;2.58;;;;;;;28.20;49.99;101174.75;5035818;28;20207;-71
2023/08/12 10:30:37;;;;;;;4.68;3.05;;;;;;;28.21;50.34;101173.56;5032863;28;21416;-71
2023/08/12 10:33:06;;;;;;;4.50;3.10;;;;;;;28.20;49.80;101165.84;5035934;28;20290;-72
2023/08/12 10:35:44;;;;;;;2.78;2.47;;;;;;;28.20;49.42;101169.34;5035448;28;20213;-72
2023/08/12 10:38:12;;;;;;;3.80;3.22;;;;;;;28.21;51.60;101172.78;5037908;28;20222;-72
2023/08/12 10:40:39;;;;;;;3.67;2.92;;;;;;;28.20;52.54;101160.41;5031517;28;20279;-72
2023/08/12 10:43:05;;;;;;;4.10;3.00;;;;;;;28.21;52.01;101160.00;5038551;28;20206;-71
2023/08/12 10:45:43;;;;;;;2.60;2.40;;;;;;;28.21;51.51;101153.78;5034002;28;20195;-72
2023/08/12 10:48:27;;;;;;;3.95;2.70;;;;;;;28.21;50.10;101149.13;5033110;28;24197;-72
2023/08/12 10:50:57;;;;;;;4.15;2.60;;;;;;;28.24;49.30;101147.50;5037716;28;20227;-71
2023/08/12 10:53:29;;;;;;;3.90;2.70;;;;;;;28.30;50.29;101151.19;5034744;28;20215;-72
2023/08/12 10:55:57;;;;;;;3.50;3.00;;;;;;;28.38;48.37;101152.53;5033329;28;20269;-71
2023/08/12 10:58:34;;;;;;;4.00;2.88;;;;;;;28.46;50.95;101141.06;5030960;28;20234;-72
2023/08/12 11:01:00;;;;;;;3.22;2.70;;;;;;;28.56;48.94;101137.25;5033176;28;20231;-71
2023/08/12 11:03:27;;;;;;;4.00;2.75;;;;;;;28.68;51.20;101143.88;5033617;28;20214;-71
2023/08/12 11:05:56;;;;;;;3.88;2.63;;;;;;;28.80;48.78;101135.72;5038458;28;20203;-72
2023/08/12 11:08:29;;;;;;;2.63;2.42;;;;;;;28.93;50.11;101130.28;5033061;28;20218;-72
2023/08/12 11:10:57;;;;;;;3.30;2.70;;;;;;;29.03;49.15;101129.97;5037221;28;20744;-73
2023/08/12 11:13:24;;;;;;;2.78;2.50;;;;;;;29.14;47.86;101137.78;5033999;28;20309;-71
2023/08/12 11:15:50;;;;;;;2.85;2.60;;;;;;;29.22;48.80;101131.66;5034159;28;20207;-72
2023/08/12 11:18:18;;;;;;;3.63;2.67;;;;;;;29.29;47.79;101126.00;5030170;28;20231;-71
2023/08/12 11:20:46;;;;;;;4.70;2.75;;;;;;;29.36;44.67;101128.47;5033078;28;20226;-71
2023/08/12 11:23:14;;;;;;;5.03;3.05;;;;;;;29.43;47.51;101119.31;5035426;28;20819;-72
2023/08/12 11:25:41;;;;;;;4.55;2.83;;;;;;;29.49;46.48;101114.84;5026834;28;20298;-72